Time;durP1;ratioP1;P1;durP2;ratioP2;P2;SDS_P1;SDS_P2;PMS_P1;PMS_P2;Temp;Humidity;BMP_temperature;BMP_pressure;BME280_temperature;BME280_humidity;BME280_pressure;Samples;Min_cycle;Max_cycle;Signal;HPM_P1;HPM_P2
2023/09/16 00:00:43;;;;;;;7.43;5.68;;;14.60;99.90;;;;;;5040036;28;20021;-73
2023/09/16 00:03:09;;;;;;;7.28;5.28;;;14.60;99.90;;;;;;5039689;28;20029;-73
2023/09/16 00:05:38;;;;;;;7.20;5.63;;;14.60;99.90;;;;;;5021798;28;20025;-73
2023/09/16 00:08:05;;;;;;;7.47;5.55;;;14.60;99.90;;;;;;5039629;28;20490;-73
2023/09/16 00:10:32;;;;;;;6.32;4.90;;;14.60;99.90;;;;;;5021785;28;20068;-73
2023/09/16 00:12:58;;;;;;;7.55;5.57;;;14.60;99.90;;;;;;5039553;28;20121;-73
2023/09/16 00:15:23;;;;;;;8.50;4.95;;;14.60;99.90;;;;;;5039960;28;20060;-73
2023/09/16 00:17:49;;;;;;;6.68;5.18;;;14.60;99.90;;;;;;5039948;28;20039;-73
2023/09/16 00:20:15;;;;;;;7.60;4.93;;;14.50;99.90;;;;;;5039482;28;20049;-73
2023/09/16 00:22:42;;;;;;;6.70;5.03;;;14.50;99.90;;;;;;5039395;28;20399;-73
2023/09/16 00:25:08;;;;;;;7.38;5.45;;;14.50;99.90;;;;;;5039268;28;20021;-73
2023/09/16 00:27:41;;;;;;;6.40;4.97;;;14.50;99.90;;;;;;5039429;28;20131;-73
2023/09/16 00:30:08;;;;;;;7.43;5.07;;;14.40;99.90;;;;;;5039368;28;20034;-73
2023/09/16 00:32:34;;;;;;;6.78;4.88;;;14.40;99.90;;;;;;5039362;28;20033;-73
2023/09/16 00:34:59;;;;;;;5.70;4.63;;;14.30;99.90;;;;;;5039505;28;20040;-73
2023/09/16 00:37:25;;;;;;;6.90;5.10;;;14.30;99.90;;;;;;5019463;28;20052;-73
2023/09/16 00:39:51;;;;;;;7.35;5.10;;;14.30;99.90;;;;;;5036259;28;20101;-73
2023/09/16 00:42:17;;;;;;;10.57;6.53;;;14.30;99.90;;;;;;5036131;28;20029;-73
2023/09/16 00:44:43;;;;;;;8.75;5.82;;;14.10;99.90;;;;;;5036006;28;20022;-73
2023/09/16 00:47:09;;;;;;;8.52;6.03;;;14.00;99.90;;;;;;5035984;28;20502;-73
2023/09/16 00:49:35;;;;;;;7.93;6.10;;;13.80;99.90;;;;;;5036388;28;20036;-73
2023/09/16 00:52:02;;;;;;;7.65;5.97;;;13.70;99.90;;;;;;5036342;28;20393;-73
2023/09/16 00:54:28;;;;;;;7.55;5.28;;;13.60;99.90;;;;;;5035838;28;20025;-73
2023/09/16 00:56:56;;;;;;;6.40;5.07;;;13.60;99.90;;;;;;5035757;28;20048;-72
2023/09/16 00:59:25;;;;;;;5.78;4.70;;;13.70;99.90;;;;;;5035917;28;20025;-73
2023/09/16 01:01:51;;;;;;;6.50;4.78;;;13.70;99.90;;;;;;5035757;28;20104;-73
2023/09/16 01:04:21;;;;;;;6.65;5.10;;;13.80;99.90;;;;;;5036014;28;20052;-73
2023/09/16 01:06:50;;;;;;;7.15;5.22;;;13.80;99.90;;;;;;5034154;28;20029;-73
2023/09/16 01:09:17;;;;;;;7.13;5.38;;;13.80;99.90;;;;;;5055511;28;20043;-73
2023/09/16 01:11:43;;;;;;;6.55;5.15;;;13.80;99.90;;;;;;5055380;28;20480;-75
2023/09/16 01:14:13;;;;;;;7.30;5.15;;;13.80;99.90;;;;;;5051060;28;20020;-73
2023/09/16 01:17:15;;;;;;;7.55;5.30;;;13.80;99.90;;;;;;5055210;28;20029;-73
2023/09/16 01:19:56;;;;;;;6.40;4.93;;;13.70;99.90;;;;;;5039537;28;20033;-73
2023/09/16 01:22:21;;;;;;;;;;;13.70;99.90;;;;;;5055637;28;20021;-73
2023/09/16 01:24:56;;;;;;;6.00;4.70;;;13.70;99.90;;;;;;5054715;28;19962;-73
2023/09/16 01:27:22;;;;;;;5.93;4.65;;;13.60;99.90;;;;;;5055020;28;20037;-73
2023/09/16 01:29:48;;;;;;;5.57;4.38;;;13.60;99.90;;;;;;5036445;28;20033;-73
2023/09/16 01:32:16;;;;;;;5.95;4.78;;;13.60;99.90;;;;;;5037023;28;20021;-73
2023/09/16 01:34:46;;;;;;;7.82;4.40;;;13.50;99.90;;;;;;5054849;28;20384;-73
2023/09/16 01:37:16;;;;;;;5.95;4.60;;;13.50;99.90;;;;;;5054874;28;20032;-73
2023/09/16 01:39:46;;;;;;;7.10;4.50;;;13.40;99.90;;;;;;5053967;28;20078;-73
2023/09/16 01:42:13;;;;;;;7.00;4.13;;;13.40;99.90;;;;;;5052939;28;20033;-73
2023/09/16 01:44:39;;;;;;;7.43;4.30;;;13.20;99.90;;;;;;5052783;28;20453;-73
2023/09/16 01:47:07;;;;;;;6.22;4.00;;;13.20;99.90;;;;;;5034878;28;20039;-73
2023/09/16 01:49:32;;;;;;;4.43;3.70;;;13.10;99.90;;;;;;5035319;28;20040;-73
2023/09/16 01:51:58;;;;;;;6.57;4.72;;;13.00;99.90;;;;;;5035068;28;20034;-73
2023/09/16 01:54:24;;;;;;;4.82;4.03;;;13.00;99.90;;;;;;5000628;28;20120;-73
2023/09/16 01:56:49;;;;;;;5.72;3.90;;;13.10;99.90;;;;;;5034766;28;20029;-73
2023/09/16 01:59:15;;;;;;;6.80;3.83;;;13.10;99.90;;;;;;5034691;28;20036;-73
2023/09/16 02:01:42;;;;;;;5.07;3.80;;;13.10;99.90;;;;;;5034543;28;20508;-73
2023/09/16 02:04:08;;;;;;;4.95;3.72;;;13.10;99.90;;;;;;5016640;28;20025;-73
2023/09/16 02:06:34;;;;;;;5.43;3.97;;;13.10;99.90;;;;;;5034553;28;20033;-73
2023/09/16 02:08:59;;;;;;;6.15;3.88;;;13.10;99.90;;;;;;5034343;28;20033;-73
2023/09/16 02:11:25;;;;;;;4.55;3.65;;;13.10;99.90;;;;;;5034314;28;20052;-73
2023/09/16 02:13:51;;;;;;;5.45;3.50;;;13.20;99.90;;;;;;5034369;28;20026;-73
2023/09/16 02:16:17;;;;;;;7.30;3.97;;;13.20;99.90;;;;;;5034450;28;20474;-74
2023/09/16 02:18:42;;;;;;;6.57;3.38;;;13.10;99.90;;;;;;5017052;28;20359;-73
2023/09/16 02:21:08;;;;;;;6.40;3.67;;;13.10;99.90;;;;;;5034309;28;20021;-73
2023/09/16 02:23:34;;;;;;;4.32;3.28;;;13.10;99.90;;;;;;5034171;28;20489;-73
2023/09/16 02:26:02;;;;;;;4.65;3.30;;;13.10;99.90;;;;;;5034332;28;20432;-73
2023/09/16 02:28:29;;;;;;;5.75;3.78;;;13.00;99.90;;;;;;5034104;28;20033;-73
2023/09/16 02:30:55;;;;;;;5.43;3.53;;;13.00;99.90;;;;;;5034070;28;20056;-73
2023/09/16 02:33:20;;;;;;;7.65;4.88;;;12.80;99.90;;;;;;5016361;28;20057;-73
2023/09/16 02:35:46;;;;;;;7.50;5.47;;;12.80;99.90;;;;;;5033965;28;20057;-73
2023/09/16 02:38:12;;;;;;;6.50;5.13;;;12.60;99.90;;;;;;5033839;28;20034;-73
2023/09/16 02:40:41;;;;;;;5.95;4.80;;;12.50;99.90;;;;;;5033872;28;20037;-73
2023/09/16 02:43:07;;;;;;;9.75;4.63;;;12.40;99.90;;;;;;5033858;28;20021;-73
2023/09/16 02:45:42;;;;;;;6.78;4.35;;;12.40;99.90;;;;;;5016097;28;20025;-73
2023/09/16 02:48:08;;;;;;;6.13;3.78;;;12.30;99.90;;;;;;5033710;28;20124;-73
2023/09/16 02:50:34;;;;;;;5.15;3.60;;;12.40;99.90;;;;;;5033775;28;20426;-73
2023/09/16 02:53:00;;;;;;;4.30;3.22;;;12.40;99.90;;;;;;5033750;28;20021;-73
2023/09/16 02:55:27;;;;;;;4.70;3.55;;;12.40;99.90;;;;;;5033671;28;20025;-73
2023/09/16 02:57:53;;;;;;;4.85;3.53;;;12.40;99.90;;;;;;5033561;28;20029;-73
2023/09/16 03:00:19;;;;;;;3.85;3.25;;;12.40;99.90;;;;;;5032910;28;20067;-73
2023/09/16 03:02:51;;;;;;;4.28;3.38;;;12.40;99.90;;;;;;5033863;28;20033;-73
2023/09/16 03:05:17;;;;;;;4.90;3.30;;;12.40;99.90;;;;;;5016008;28;20082;-73
2023/09/16 03:07:44;;;;;;;4.18;3.10;;;12.40;99.90;;;;;;5034065;28;20381;-73
2023/09/16 03:10:10;;;;;;;5.53;3.38;;;12.40;99.90;;;;;;5033472;28;20036;-73
2023/09/16 03:12:36;;;;;;;5.60;3.47;;;12.40;99.90;;;;;;5015817;28;20146;-73
2023/09/16 03:15:03;;;;;;;5.50;3.08;;;12.50;99.90;;;;;;5033405;28;20164;-73
2023/09/16 03:17:29;;;;;;;4.60;3.58;;;12.50;99.90;;;;;;5033367;28;20029;-73
2023/09/16 03:19:55;;;;;;;4.22;3.20;;;12.50;99.90;;;;;;5033472;28;20022;-73
2023/09/16 03:22:20;;;;;;;4.68;3.65;;;12.50;99.90;;;;;;5033417;28;20116;-73
2023/09/16 03:24:47;;;;;;;4.63;3.45;;;12.50;99.90;;;;;;5033619;28;20076;-73
2023/09/16 03:27:13;;;;;;;5.05;3.55;;;12.50;99.90;;;;;;5033633;28;20037;-73
2023/09/16 03:29:38;;;;;;;4.97;3.40;;;12.60;99.90;;;;;;5033460;28;20033;-73
2023/09/16 03:32:04;;;;;;;5.28;3.65;;;12.50;99.90;;;;;;5033202;28;20084;-73
2023/09/16 03:34:30;;;;;;;4.55;3.70;;;12.50;99.90;;;;;;5016168;28;20141;-73
2023/09/16 03:36:55;;;;;;;5.88;3.88;;;12.50;99.90;;;;;;5033417;28;20080;-73
2023/09/16 03:39:21;;;;;;;4.78;3.40;;;12.50;99.90;;;;;;5033238;28;20394;-73
2023/09/16 03:41:47;;;;;;;5.00;3.50;;;12.50;99.90;;;;;;5033132;28;20072;-73
2023/09/16 03:44:14;;;;;;;5.05;3.60;;;12.40;99.90;;;;;;5033903;28;20026;-73
2023/09/16 03:46:39;;;;;;;5.70;3.63;;;12.40;99.90;;;;;;5015416;28;20063;-73
2023/09/16 03:49:05;;;;;;;6.07;3.33;;;12.30;99.90;;;;;;5033074;28;20056;-73
2023/09/16 03:51:33;;;;;;;4.55;3.22;;;12.20;99.90;;;;;;5015582;28;20040;-73
2023/09/16 03:53:59;;;;;;;4.60;3.22;;;12.20;99.90;;;;;;5033257;28;20021;-73
2023/09/16 03:56:25;;;;;;;5.40;3.15;;;12.20;99.90;;;;;;5032971;28;20158;-73
2023/09/16 03:58:51;;;;;;;5.93;3.20;;;12.20;99.90;;;;;;5033124;28;20126;-73
2023/09/16 04:01:17;;;;;;;7.25;3.40;;;12.10;99.90;;;;;;5033600;28;20036;-73
2023/09/16 04:03:43;;;;;;;4.28;3.38;;;12.10;99.90;;;;;;5033305;28;20101;-73
2023/09/16 04:06:09;;;;;;;7.18;3.60;;;12.20;99.90;;;;;;5032869;28;20104;-73
2023/09/16 04:08:35;;;;;;;4.40;3.25;;;12.20;99.90;;;;;;5034132;28;20057;-73
2023/09/16 04:11:01;;;;;;;3.97;2.92;;;12.20;99.90;;;;;;5034333;28;20470;-73
2023/09/16 04:13:29;;;;;;;4.88;3.10;;;12.20;99.90;;;;;;5036680;28;20084;-73
2023/09/16 04:15:55;;;;;;;4.07;2.88;;;12.20;99.90;;;;;;5018732;28;20034;-73
2023/09/16 04:18:21;;;;;;;4.18;3.00;;;12.20;99.90;;;;;;5036543;28;20037;-73
2023/09/16 04:20:48;;;;;;;3.50;2.55;;;12.10;99.90;;;;;;5036543;28;20133;-73
2023/09/16 04:23:14;;;;;;;3.92;2.90;;;12.10;99.90;;;;;;5018714;28;20116;-73
2023/09/16 04:25:40;;;;;;;4.18;3.10;;;12.20;99.90;;;;;;5018670;28;20049;-73
2023/09/16 04:28:06;;;;;;;3.55;2.58;;;12.10;99.90;;;;;;5036427;28;20063;-73
2023/09/16 04:30:38;;;;;;;4.07;2.80;;;12.10;99.90;;;;;;5036395;28;20453;-73
2023/09/16 04:33:04;;;;;;;4.43;2.95;;;12.10;99.90;;;;;;5019829;28;20025;-73
2023/09/16 04:35:31;;;;;;;4.18;3.13;;;12.00;99.90;;;;;;5036160;28;20037;-73
2023/09/16 04:37:56;;;;;;;4.20;3.00;;;12.00;99.90;;;;;;5018681;28;20030;-73
2023/09/16 04:40:22;;;;;;;3.75;2.70;;;12.00;99.90;;;;;;5036445;28;20091;-73
2023/09/16 04:42:48;;;;;;;3.40;2.67;;;12.00;99.90;;;;;;5036126;28;20022;-73
2023/09/16 04:45:15;;;;;;;3.80;2.83;;;11.90;99.90;;;;;;5036057;28;20030;-73
2023/09/16 04:47:41;;;;;;;4.60;2.78;;;11.90;99.90;;;;;;5036108;28;20067;-73
2023/09/16 04:50:07;;;;;;;4.10;3.00;;;11.90;99.90;;;;;;5036236;28;20026;-73
2023/09/16 04:52:33;;;;;;;4.63;3.38;;;11.80;99.90;;;;;;5035956;28;20030;-73
2023/09/16 04:54:59;;;;;;;5.80;3.55;;;11.70;99.90;;;;;;5035799;28;20124;-73
2023/09/16 04:57:25;;;;;;;4.28;3.10;;;11.70;99.90;;;;;;5018211;28;20025;-73
2023/09/16 04:59:51;;;;;;;5.75;3.33;;;11.70;99.90;;;;;;5036007;28;20075;-73
2023/09/16 05:02:17;;;;;;;3.65;2.72;;;11.70;99.90;;;;;;5035726;28;20393;-73
2023/09/16 05:04:42;;;;;;;5.32;3.20;;;11.70;99.90;;;;;;5018105;28;20026;-73
2023/09/16 05:07:08;;;;;;;4.85;2.60;;;11.60;99.90;;;;;;5018319;28;20029;-73
2023/09/16 05:09:35;;;;;;;5.35;3.28;;;11.70;99.90;;;;;;5035617;28;20055;-73
2023/09/16 05:12:00;;;;;;;4.93;2.92;;;11.70;99.90;;;;;;5035607;28;20026;-73
2023/09/16 05:14:26;;;;;;;3.58;2.72;;;11.70;99.90;;;;;;5035653;28;20496;-72
2023/09/16 05:16:52;;;;;;;4.68;3.08;;;11.70;99.90;;;;;;5036967;28;20030;-73
2023/09/16 05:19:18;;;;;;;4.35;3.45;;;11.70;99.90;;;;;;5054821;28;20037;-72
2023/09/16 05:21:43;;;;;;;5.50;3.20;;;11.70;99.90;;;;;;5055189;28;20036;-72
2023/09/16 05:24:09;;;;;;;5.03;3.05;;;11.70;99.90;;;;;;5054218;28;20021;-72
2023/09/16 05:26:35;;;;;;;5.60;3.67;;;11.80;99.90;;;;;;5054426;28;20040;-72
2023/09/16 05:29:00;;;;;;;5.45;3.67;;;11.70;99.90;;;;;;5037598;28;20098;-72
2023/09/16 05:31:27;;;;;;;4.88;3.28;;;11.70;99.90;;;;;;5038980;28;20032;-72
2023/09/16 05:33:52;;;;;;;3.75;2.60;;;11.70;99.90;;;;;;5059567;28;20594;-73
2023/09/16 05:36:20;;;;;;;4.00;2.83;;;11.70;99.90;;;;;;5054439;28;20040;-74
2023/09/16 05:38:45;;;;;;;4.93;3.30;;;11.70;99.90;;;;;;5054438;28;20017;-73
2023/09/16 05:41:11;;;;;;;5.82;3.22;;;11.70;99.90;;;;;;5062722;28;20428;-73
2023/09/16 05:43:37;;;;;;;7.15;3.78;;;11.80;99.90;;;;;;5042768;28;20063;-73
2023/09/16 05:46:03;;;;;;;7.07;3.63;;;11.80;99.90;;;;;;5021226;28;20032;-73
2023/09/16 05:48:28;;;;;;;5.10;3.63;;;11.90;99.90;;;;;;5054557;28;20036;-73
2023/09/16 05:50:58;;;;;;;4.95;3.05;;;12.00;99.90;;;;;;5054023;28;20064;-73
2023/09/16 05:53:25;;;;;;;4.25;3.05;;;12.00;99.90;;;;;;5054908;28;20021;-73
2023/09/16 05:55:51;;;;;;;5.28;3.13;;;12.10;99.90;;;;;;5053962;28;20048;-73
2023/09/16 05:58:17;;;;;;;6.38;2.97;;;12.10;99.90;;;;;;5054478;28;20529;-73
2023/09/16 06:00:43;;;;;;;4.28;3.45;;;12.10;99.90;;;;;;5053877;28;20108;-73
2023/09/16 06:03:09;;;;;;;5.15;3.30;;;12.20;99.90;;;;;;5054520;28;20116;-73
2023/09/16 06:05:34;;;;;;;4.97;3.00;;;12.20;99.90;;;;;;5054662;28;20060;-73
2023/09/16 06:08:00;;;;;;;5.03;3.13;;;12.30;99.90;;;;;;5053864;28;20040;-74
2023/09/16 06:10:26;;;;;;;6.60;3.10;;;12.30;99.90;;;;;;5035190;28;20040;-73
2023/09/16 06:12:52;;;;;;;4.25;2.70;;;12.30;99.90;;;;;;5035222;28;20029;-73
2023/09/16 06:15:18;;;;;;;5.35;2.97;;;12.40;99.90;;;;;;5053771;28;20029;-73
2023/09/16 06:17:44;;;;;;;5.93;3.13;;;12.40;99.90;;;;;;5053497;28;20110;-74
2023/09/16 06:20:10;;;;;;;5.47;3.63;;;12.40;99.90;;;;;;5053995;28;20031;-73
2023/09/16 06:22:35;;;;;;;5.25;3.38;;;12.40;99.90;;;;;;5036153;28;20036;-74
2023/09/16 06:25:01;;;;;;;4.57;3.00;;;12.40;99.90;;;;;;5053925;28;20021;-73
2023/09/16 06:27:27;;;;;;;3.70;2.70;;;12.40;99.90;;;;;;5053662;28;20033;-74
2023/09/16 06:29:53;;;;;;;4.50;2.90;;;12.50;99.90;;;;;;5036101;28;20032;-73
2023/09/16 06:32:19;;;;;;;4.97;2.90;;;12.50;99.90;;;;;;5035711;28;20032;-73
2023/09/16 06:34:45;;;;;;;4.10;2.75;;;12.60;99.90;;;;;;5053554;28;20035;-74
2023/09/16 06:37:11;;;;;;;5.80;3.40;;;12.70;99.90;;;;;;5053603;28;20455;-74
2023/09/16 06:39:38;;;;;;;5.00;3.30;;;12.80;99.90;;;;;;5036075;28;20048;-74
2023/09/16 06:42:06;;;;;;;6.85;3.08;;;13.00;99.90;;;;;;5035812;28;20029;-74
2023/09/16 06:44:32;;;;;;;3.78;2.92;;;13.10;99.90;;;;;;5053596;28;20104;-74
2023/09/16 06:46:57;;;;;;;4.10;2.63;;;13.30;99.90;;;;;;5053229;28;20120;-74
2023/09/16 06:49:23;;;;;;;4.68;2.80;;;13.40;99.90;;;;;;5053686;28;20044;-74
2023/09/16 06:51:49;;;;;;;4.18;2.75;;;13.50;99.90;;;;;;5053449;28;20400;-74
2023/09/16 06:54:15;;;;;;;5.13;2.80;;;13.60;99.90;;;;;;5053161;28;20029;-74
2023/09/16 06:56:40;;;;;;;3.97;2.80;;;13.70;99.90;;;;;;5018516;28;20107;-74
2023/09/16 06:59:06;;;;;;;3.80;2.92;;;13.80;99.90;;;;;;5052961;28;20029;-74
2023/09/16 07:01:32;;;;;;;4.88;3.45;;;13.90;99.90;;;;;;5053439;28;20029;-73
2023/09/16 07:03:58;;;;;;;5.45;3.78;;;14.00;99.90;;;;;;5053081;28;20077;-74
2023/09/16 07:06:23;;;;;;;4.82;3.30;;;14.10;99.90;;;;;;5035492;28;20075;-74
2023/09/16 07:08:49;;;;;;;5.82;3.83;;;14.20;99.90;;;;;;5053328;28;20036;-74
2023/09/16 07:11:17;;;;;;;6.57;3.63;;;14.30;99.90;;;;;;5053251;28;20040;-74
2023/09/16 07:13:46;;;;;;;5.57;3.78;;;14.40;99.90;;;;;;5053287;28;20397;-74
2023/09/16 07:16:12;;;;;;;6.45;3.78;;;14.40;99.90;;;;;;5035280;28;20039;-74
2023/09/16 07:18:38;;;;;;;5.57;3.67;;;14.50;99.90;;;;;;5052790;28;20516;-73
2023/09/16 07:21:04;;;;;;;5.45;4.00;;;14.60;99.90;;;;;;5053351;28;20068;-74
2023/09/16 07:23:30;;;;;;;5.32;3.08;;;14.60;99.90;;;;;;5053228;28;20048;-74
2023/09/16 07:25:57;;;;;;;4.95;3.03;;;14.70;99.90;;;;;;5053006;28;20037;-74
2023/09/16 07:28:24;;;;;;;4.35;3.08;;;14.70;99.90;;;;;;5053155;28;20032;-74
2023/09/16 07:30:50;;;;;;;5.35;3.35;;;14.80;99.90;;;;;;5053088;28;20029;-74
2023/09/16 07:33:16;;;;;;;6.75;4.20;;;14.80;99.90;;;;;;5034823;28;20036;-74
2023/09/16 07:35:41;;;;;;;7.50;4.40;;;15.00;99.90;;;;;;5052922;28;20052;-74
2023/09/16 07:38:08;;;;;;;6.28;4.72;;;15.00;99.90;;;;;;5052854;28;20483;-74
2023/09/16 07:40:35;;;;;;;7.32;4.75;;;15.20;99.90;;;;;;5051545;28;20025;-74
2023/09/16 07:43:01;;;;;;;6.18;4.25;;;15.30;99.90;;;;;;5051146;28;20022;-73
2023/09/16 07:45:27;;;;;;;6.72;4.93;;;15.30;99.90;;;;;;5033844;28;20041;-74
2023/09/16 07:47:53;;;;;;;7.18;5.07;;;15.40;99.90;;;;;;5053324;28;20041;-74
2023/09/16 07:50:19;;;;;;;8.45;5.15;;;15.50;99.90;;;;;;5053175;28;20044;-74
2023/09/16 07:52:44;;;;;;;10.48;5.32;;;15.60;99.90;;;;;;5053072;28;20048;-74
2023/09/16 07:55:10;;;;;;;7.35;5.30;;;15.70;99.90;;;;;;5055000;28;20108;-74
2023/09/16 07:57:36;;;;;;;8.93;5.18;;;15.90;99.90;;;;;;5022698;28;20465;-74
2023/09/16 08:00:07;;;;;;;10.35;6.88;;;15.90;99.90;;;;;;5057002;28;20021;-74
2023/09/16 08:02:33;;;;;;;11.07;6.30;;;16.10;99.90;;;;;;5056997;28;20072;-73
2023/09/16 08:04:59;;;;;;;7.97;5.70;;;16.20;99.90;;;;;;5056819;28;20055;-73
2023/09/16 08:07:24;;;;;;;6.32;4.57;;;16.30;99.90;;;;;;5056824;28;20491;-74
2023/09/16 08:09:51;;;;;;;5.95;4.82;;;16.40;99.90;;;;;;5057238;28;20033;-74
2023/09/16 08:12:17;;;;;;;7.07;4.43;;;16.50;99.90;;;;;;5056743;28;20033;-73
2023/09/16 08:14:43;;;;;;;7.30;4.78;;;16.50;99.90;;;;;;5038818;28;20116;-74
2023/09/16 08:17:09;;;;;;;6.85;4.25;;;16.70;99.90;;;;;;5039469;28;20532;-74
2023/09/16 08:19:35;;;;;;;6.03;3.67;;;16.80;99.90;;;;;;5057080;28;20096;-74
2023/09/16 08:22:00;;;;;;;5.30;3.60;;;16.90;99.90;;;;;;5056652;28;20048;-74
2023/09/16 08:24:27;;;;;;;6.65;4.35;;;17.00;99.90;;;;;;5056480;28;20515;-74
2023/09/16 08:26:52;;;;;;;5.28;3.60;;;17.10;99.90;;;;;;5056470;28;20033;-74
2023/09/16 08:29:18;;;;;;;4.70;3.47;;;17.30;99.90;;;;;;5056407;28;20032;-74
2023/09/16 08:31:44;;;;;;;5.68;3.65;;;17.40;99.90;;;;;;5038747;28;20116;-74
2023/09/16 08:34:09;;;;;;;5.60;3.50;;;17.50;99.90;;;;;;5056311;28;20108;-73
2023/09/16 08:36:35;;;;;;;5.53;3.60;;;17.70;99.90;;;;;;5056257;28;20033;-73
2023/09/16 08:39:01;;;;;;;4.72;3.35;;;17.80;99.90;;;;;;5056241;28;20029;-73
2023/09/16 08:41:38;;;;;;;5.13;3.72;;;17.90;99.90;;;;;;5038450;28;20028;-75
2023/09/16 08:44:05;;;;;;;4.45;3.65;;;18.10;99.90;;;;;;5038291;28;20028;-76
2023/09/16 08:46:34;;;;;;;5.13;3.72;;;18.20;99.90;;;;;;5056074;28;20036;-74
2023/09/16 08:49:04;;;;;;;4.80;3.58;;;18.30;99.90;;;;;;5055977;28;20065;-76
2023/09/16 08:51:33;;;;;;;6.32;3.50;;;18.50;99.90;;;;;;5039063;28;20092;-75
2023/09/16 08:54:03;;;;;;;5.03;3.55;;;18.60;99.90;;;;;;5056052;28;20025;-75
2023/09/16 08:56:30;;;;;;;4.93;3.38;;;18.70;99.90;;;;;;5055991;28;20383;-74
2023/09/16 08:58:57;;;;;;;4.90;3.47;;;18.80;99.90;;;;;;5054617;28;20029;-74
2023/09/16 09:01:23;;;;;;;5.13;3.95;;;18.90;99.90;;;;;;5056040;28;20025;-73
2023/09/16 09:03:48;;;;;;;5.25;4.25;;;19.00;99.90;;;;;;5055828;28;20025;-72
2023/09/16 09:06:16;;;;;;;7.35;3.47;;;19.10;99.90;;;;;;5055837;28;20036;-72
2023/09/16 09:08:42;;;;;;;5.25;3.63;;;19.20;99.90;;;;;;5055797;28;20480;-72
2023/09/16 09:11:12;;;;;;;6.35;3.83;;;19.30;99.90;;;;;;5038372;28;20040;-72
2023/09/16 09:13:40;;;;;;;5.97;3.50;;;19.50;99.90;;;;;;5056005;28;20033;-73
2023/09/16 09:16:06;;;;;;;4.78;3.40;;;19.60;99.90;;;;;;5055929;28;20491;-75
2023/09/16 09:18:35;;;;;;;4.47;2.83;;;19.70;99.90;;;;;;5055514;28;20433;-75
2023/09/16 09:21:02;;;;;;;5.15;3.85;;;19.80;99.90;;;;;;5055457;28;20088;-75
2023/09/16 09:23:31;;;;;;;4.55;3.20;;;19.90;99.90;;;;;;5055424;28;20029;-75
2023/09/16 09:25:57;;;;;;;6.05;3.05;;;20.10;99.90;;;;;;5055516;28;20128;-76
2023/09/16 09:28:22;;;;;;;4.43;3.10;;;20.20;99.90;;;;;;5037551;28;20044;-75
2023/09/16 09:30:49;;;;;;;5.28;2.65;;;20.30;99.90;;;;;;5037329;28;20404;-75
2023/09/16 09:33:19;;;;;;;4.50;3.15;;;20.40;99.90;;;;;;5055815;28;20029;-74
2023/09/16 09:35:45;;;;;;;4.32;2.78;;;20.50;99.90;;;;;;5054138;28;20485;-74
2023/09/16 09:38:11;;;;;;;4.07;3.13;;;20.60;99.90;;;;;;5052924;28;20091;-74
2023/09/16 09:40:37;;;;;;;4.15;3.20;;;20.70;99.90;;;;;;5035800;28;20021;-74
2023/09/16 09:43:03;;;;;;;6.78;3.05;;;20.80;99.90;;;;;;5054464;28;20100;-74
2023/09/16 09:45:35;;;;;;;4.47;3.33;;;20.90;99.90;;;;;;5036078;28;20114;-74
2023/09/16 09:48:01;;;;;;;3.75;2.47;;;21.00;99.90;;;;;;5054634;28;20033;-74
2023/09/16 09:50:29;;;;;;;4.93;3.20;;;21.20;99.90;;;;;;5036971;28;20029;-74
2023/09/16 09:52:56;;;;;;;4.15;3.15;;;21.30;99.90;;;;;;5054872;28;20491;-74
2023/09/16 09:55:24;;;;;;;4.00;3.30;;;21.30;99.90;;;;;;5037062;28;20121;-74
2023/09/16 09:57:51;;;;;;;4.97;3.42;;;21.50;99.90;;;;;;5054687;28;20571;-74
2023/09/16 10:00:19;;;;;;;5.68;3.40;;;21.60;99.90;;;;;;5054795;28;20032;-74
2023/09/16 10:02:47;;;;;;;4.15;3.50;;;21.70;99.90;;;;;;5054713;28;20029;-74
2023/09/16 10:05:18;;;;;;;4.70;3.40;;;21.80;99.90;;;;;;5036687;28;20028;-74
2023/09/16 10:07:44;;;;;;;4.28;3.25;;;21.90;99.90;;;;;;5054832;28;20032;-74
2023/09/16 10:10:24;;;;;;;5.03;3.70;;;22.10;99.90;;;;;;5054026;28;20026;-74
2023/09/16 10:12:55;;;;;;;4.55;3.03;;;22.20;99.90;;;;;;5054748;28;20021;-74
2023/09/16 10:15:46;;;;;;;3.63;3.03;;;22.30;99.90;;;;;;5054674;28;20384;-74
2023/09/16 10:18:12;;;;;;;;;;;22.40;99.90;;;;;;5054937;28;20106;-74
2023/09/16 10:20:43;;;;;;;4.95;3.15;;;22.50;99.90;;;;;;5054381;28;20368;-74
2023/09/16 10:23:10;;;;;;;3.72;2.53;;;22.60;99.90;;;;;;5054338;28;20494;-74
2023/09/16 10:25:36;;;;;;;4.10;3.13;;;22.70;99.90;;;;;;5053442;28;20021;-74
2023/09/16 10:28:05;;;;;;;3.97;2.58;;;22.80;99.90;;;;;;5054259;28;20036;-74
2023/09/16 10:30:34;;;;;;;4.68;2.72;;;22.90;99.90;;;;;;5052969;28;20436;-74
2023/09/16 10:33:01;;;;;;;3.80;2.80;;;23.00;99.90;;;;;;5036494;28;20035;-74
2023/09/16 10:35:30;;;;;;;4.00;3.28;;;23.10;99.90;;;;;;5054039;28;20040;-74
2023/09/16 10:37:58;;;;;;;3.28;2.55;;;23.20;99.90;;;;;;5054261;28;20053;-74
2023/09/16 10:40:25;;;;;;;3.05;2.55;;;23.20;99.90;;;;;;5054340;28;20029;-74
2023/09/16 10:42:53;;;;;;;5.57;2.83;;;23.40;99.90;;;;;;5036053;28;20052;-74
2023/09/16 10:45:19;;;;;;;3.78;3.00;;;23.50;99.90;;;;;;5035929;28;20033;-74
2023/09/16 10:47:48;;;;;;;3.85;2.58;;;23.50;99.90;;;;;;5053806;28;20082;-74
2023/09/16 10:50:14;;;;;;;4.28;2.55;;;23.60;99.90;;;;;;5035857;28;20033;-73
2023/09/16 10:52:45;;;;;;;3.42;2.80;;;23.70;99.90;;;;;;5053782;28;20029;-74
2023/09/16 10:55:23;;;;;;;4.53;2.75;;;23.80;99.90;;;;;;5035906;28;20083;-71
2023/09/16 10:58:13;;;;;;;3.30;2.67;;;23.90;99.90;;;;;;5053530;28;20029;-73
2023/09/16 11:00:50;;;;;;;3.33;2.33;;;24.00;99.90;;;;;;5052767;28;20021;-74
2023/09/16 11:03:16;;;;;;;4.35;2.17;;;24.10;99.90;;;;;;5053315;28;20055;-74
2023/09/16 11:05:42;;;;;;;2.88;2.50;;;24.20;99.90;;;;;;5053464;28;20102;-74
2023/09/16 11:08:09;;;;;;;3.50;2.33;;;24.30;99.90;;;;;;5052362;28;20032;-74
2023/09/16 11:10:36;;;;;;;3.00;2.15;;;24.40;99.90;;;;;;5053214;28;20028;-74
2023/09/16 11:13:02;;;;;;;3.72;2.55;;;24.50;99.90;;;;;;5019118;28;20481;-74
2023/09/16 11:15:35;;;;;;;2.83;2.03;;;24.50;99.90;;;;;;5035644;28;20043;-74
2023/09/16 11:18:07;;;;;;;3.40;2.03;;;24.60;99.40;;;;;;5053225;28;20485;-74
2023/09/16 11:20:34;;;;;;;2.15;1.63;;;24.60;99.20;;;;;;5052992;28;20053;-74
2023/09/16 11:23:01;;;;;;;3.30;2.30;;;24.70;99.20;;;;;;5035275;28;20437;-73
2023/09/16 11:25:33;;;;;;;2.97;2.10;;;24.90;99.90;;;;;;5053150;28;20560;-73
2023/09/16 11:28:01;;;;;;;3.28;2.20;;;25.00;99.50;;;;;;5053537;28;20039;-73
2023/09/16 11:30:27;;;;;;;3.25;1.80;;;25.10;99.70;;;;;;5053522;28;20112;-73
2023/09/16 11:33:30;;;;;;;3.75;1.90;;;25.10;97.60;;;;;;5053265;28;20056;-73
2023/09/16 11:36:12;;;;;;;3.00;1.73;;;25.10;97.90;;;;;;5049391;28;20064;-73
2023/09/16 11:38:55;;;;;;;2.60;1.80;;;25.30;98.90;;;;;;5053440;28;20527;-73
2023/09/16 11:41:22;;;;;;;3.13;1.98;;;25.40;97.00;;;;;;5035653;28;20033;-73
2023/09/16 11:43:48;;;;;;;2.13;1.60;;;25.50;92.70;;;;;;5035251;28;20448;-74
2023/09/16 11:46:14;;;;;;;2.38;1.60;;;25.50;92.50;;;;;;5052827;28;20064;-74
2023/09/16 11:48:56;;;;;;;2.03;1.35;;;25.60;93.50;;;;;;5035257;28;20037;-73
2023/09/16 11:51:23;;;;;;;2.13;1.50;;;25.80;94.10;;;;;;5052998;28;20029;-74
2023/09/16 11:53:51;;;;;;;3.03;1.90;;;25.80;91.50;;;;;;5054680;28;20469;-74
2023/09/16 11:56:18;;;;;;;3.25;2.00;;;25.90;93.20;;;;;;5054194;28;20032;-74
2023/09/16 11:58:45;;;;;;;2.65;1.90;;;26.00;92.30;;;;;;5054024;28;20025;-73
2023/09/16 12:01:19;;;;;;;4.03;1.75;;;26.00;93.80;;;;;;5053627;28;20029;-74
2023/09/16 12:03:45;;;;;;;2.03;1.30;;;26.00;91.90;;;;;;5053563;28;20028;-74
2023/09/16 12:06:11;;;;;;;2.72;1.73;;;26.10;92.60;;;;;;5053486;28;20025;-74
2023/09/16 12:08:42;;;;;;;2.50;1.58;;;26.20;92.80;;;;;;5035745;28;20025;-74
2023/09/16 12:11:07;;;;;;;2.75;1.65;;;26.40;92.20;;;;;;5035878;28;20518;-74
2023/09/16 12:13:33;;;;;;;2.00;1.60;;;26.40;91.80;;;;;;5053886;28;20025;-75
2023/09/16 12:15:59;;;;;;;2.40;1.70;;;26.50;90.70;;;;;;5052298;28;20029;-75
2023/09/16 12:18:25;;;;;;;2.40;2.00;;;26.60;92.40;;;;;;5034487;28;20040;-75
2023/09/16 12:20:52;;;;;;;2.25;1.70;;;26.70;89.20;;;;;;5053961;28;20100;-75
2023/09/16 12:23:18;;;;;;;2.55;1.70;;;26.70;89.40;;;;;;5052046;28;20021;-75
2023/09/16 12:25:45;;;;;;;2.08;1.55;;;26.80;90.90;;;;;;5036038;28;20089;-74
2023/09/16 12:28:16;;;;;;;2.65;1.45;;;26.80;88.50;;;;;;5053591;28;20025;-75
2023/09/16 12:30:47;;;;;;;1.88;1.33;;;26.80;88.80;;;;;;5053724;28;20033;-75
2023/09/16 12:33:13;;;;;;;1.80;1.10;;;26.80;85.60;;;;;;5055498;28;20074;-75
2023/09/16 12:35:40;;;;;;;2.08;1.25;;;26.80;79.80;;;;;;5039356;28;20029;-75
2023/09/16 12:38:07;;;;;;;1.55;1.10;;;26.90;80.50;;;;;;5057189;28;20083;-75
2023/09/16 12:40:34;;;;;;;2.47;1.30;;;26.90;78.30;;;;;;5054930;28;20091;-75
2023/09/16 12:43:00;;;;;;;1.95;1.25;;;27.00;83.50;;;;;;5056684;28;20064;-76
2023/09/16 12:45:28;;;;;;;3.30;1.55;;;27.10;85.00;;;;;;5057259;28;20025;-75
2023/09/16 12:47:55;;;;;;;2.47;1.35;;;27.20;86.30;;;;;;5057367;28;20163;-76